Time;durP1;ratioP1;P1;durP2;ratioP2;P2;SDS_P1;SDS_P2;PMS_P1;PMS_P2;Temp;Humidity;BMP_temperature;BMP_pressure;BME280_temperature;BME280_humidity;BME280_pressure;Samples;Min_cycle;Max_cycle;Signal;HPM_P1;HPM_P2
2022/06/02 00:00:18;;;;;;;9.07;8.18;;;10.50;99.90;;;;;;5091796;28;20147;-72
2022/06/02 00:03:33;;;;;;;9.27;8.57;;;10.50;99.90;;;;;;5091767;28;20519;-73
2022/06/02 00:06:14;;;;;;;9.57;8.65;;;10.40;99.90;;;;;;4990581;28;20029;-73
2022/06/02 00:08:54;;;;;;;9.32;8.48;;;10.40;99.90;;;;;;5080881;28;20039;-74
2022/06/02 00:11:32;;;;;;;9.23;8.52;;;10.40;99.90;;;;;;5091681;28;20085;-74
2022/06/02 00:14:10;;;;;;;10.70;9.73;;;10.40;99.90;;;;;;5092059;28;20016;-74
2022/06/02 00:16:57;;;;;;;11.10;10.00;;;10.30;99.90;;;;;;5092206;28;20047;-74
2022/06/02 00:19:30;;;;;;;11.23;10.05;;;10.30;99.90;;;;;;5092528;28;20368;-72
2022/06/02 00:22:06;;;;;;;11.27;10.07;;;10.30;99.90;;;;;;5092074;28;20063;-73
2022/06/02 00:24:56;;;;;;;12.50;11.30;;;10.30;99.90;;;;;;5091306;28;20021;-73
2022/06/02 00:27:40;;;;;;;11.52;10.48;;;10.30;99.90;;;;;;5092140;28;20365;-74
2022/06/02 00:30:08;;;;;;;10.73;9.93;;;10.20;99.90;;;;;;5091994;28;20036;-74
2022/06/02 00:32:56;;;;;;;12.73;9.93;;;10.20;99.90;;;;;;5091179;28;20431;-74
2022/06/02 00:35:24;;;;;;;12.05;10.60;;;10.20;99.90;;;;;;5092152;28;20468;-74
2022/06/02 00:38:06;;;;;;;13.50;12.20;;;10.20;99.90;;;;;;5090865;28;20047;-74
2022/06/02 00:40:34;;;;;;;12.45;11.27;;;10.10;99.90;;;;;;5092103;28;20020;-74
2022/06/02 00:43:30;;;;;;;12.23;10.95;;;10.10;99.90;;;;;;5091500;28;20464;-74
2022/06/02 00:46:40;;;;;;;12.73;11.18;;;10.10;99.90;;;;;;5090699;28;20549;-74
2022/06/02 00:49:14;;;;;;;12.70;11.60;;;10.10;99.90;;;;;;5091805;28;20024;-74
2022/06/02 00:52:08;;;;;;;10.63;9.82;;;10.10;99.90;;;;;;5091832;28;20298;-73
2022/06/02 00:57:43;;;;;;;12.38;11.27;;;10.10;99.90;;;;;;5092228;28;20498;-74
2022/06/02 01:00:15;;;;;;;11.48;10.43;;;10.10;99.90;;;;;;5090630;28;20055;-73
2022/06/02 01:03:26;;;;;;;12.88;11.65;;;10.00;99.90;;;;;;5091907;28;20024;-73
2022/06/02 01:05:57;;;;;;;11.23;10.32;;;10.00;99.90;;;;;;5087565;28;20053;-73
2022/06/02 01:09:00;;;;;;;12.13;11.13;;;10.00;99.90;;;;;;5091387;28;20392;-73
2022/06/02 01:11:29;;;;;;;13.25;11.50;;;10.00;99.90;;;;;;5083059;28;20087;-74
2022/06/02 01:14:06;;;;;;;10.80;9.82;;;10.00;99.90;;;;;;5090661;28;20027;-74
2022/06/02 01:16:35;;;;;;;13.80;10.88;;;9.90;99.90;;;;;;5092881;28;20024;-73
2022/06/02 01:19:38;;;;;;;11.43;10.40;;;9.90;99.90;;;;;;5091236;28;20028;-73
2022/06/02 01:22:45;;;;;;;12.60;11.43;;;9.90;99.90;;;;;;5090702;28;20024;-73
2022/06/02 01:25:48;;;;;;;12.20;10.98;;;9.80;99.90;;;;;;5091395;28;20032;-74
2022/06/02 01:28:17;;;;;;;14.65;10.85;;;9.80;99.90;;;;;;5080457;28;20027;-74
2022/06/02 01:31:12;;;;;;;12.57;11.48;;;9.80;99.90;;;;;;5091292;28;20369;-74
2022/06/02 01:34:22;;;;;;;12.40;11.35;;;9.80;99.90;;;;;;5091657;28;20100;-73
2022/06/02 01:37:05;;;;;;;11.70;10.70;;;9.80;99.90;;;;;;5050631;28;20383;-74
2022/06/02 01:39:42;;;;;;;13.60;12.18;;;9.80;99.90;;;;;;5071390;28;20024;-74
2022/06/02 01:42:26;;;;;;;12.80;11.52;;;9.70;99.90;;;;;;5075622;28;20039;-74
2022/06/02 01:45:00;;;;;;;12.07;11.07;;;10.10;99.90;;;;;;5093068;28;20388;-73
2022/06/02 01:47:41;;;;;;;12.60;11.32;;;9.70;99.90;;;;;;5095272;28;20373;-73
2022/06/02 01:50:46;;;;;;;13.60;12.27;;;9.70;99.90;;;;;;5093811;28;20397;-72
2022/06/02 01:53:24;;;;;;;13.57;11.65;;;9.60;99.90;;;;;;5094500;28;20475;-74
2022/06/02 01:56:02;;;;;;;13.27;12.00;;;9.70;99.90;;;;;;5094154;28;20027;-73
2022/06/02 01:58:43;;;;;;;13.75;12.50;;;9.70;99.90;;;;;;5094627;28;20044;-73
2022/06/02 02:01:46;;;;;;;13.55;11.90;;;9.70;99.90;;;;;;5094533;28;20095;-73
2022/06/02 02:04:46;;;;;;;13.32;11.82;;;9.70;99.90;;;;;;5081913;28;20020;-73
2022/06/02 02:07:50;;;;;;;14.60;12.32;;;9.60;99.90;;;;;;5061952;28;20080;-73
2022/06/02 02:10:36;;;;;;;14.32;12.82;;;9.60;99.90;;;;;;5093771;28;20039;-73
2022/06/02 02:13:14;;;;;;;17.10;12.07;;;9.60;99.90;;;;;;5094203;28;20028;-73
2022/06/02 02:15:48;;;;;;;14.77;13.30;;;9.60;99.90;;;;;;5094479;28;20039;-73
2022/06/02 02:18:33;;;;;;;13.88;12.50;;;9.60;99.90;;;;;;5094061;28;20040;-73
2022/06/02 02:21:23;;;;;;;12.70;11.60;;;9.60;99.90;;;;;;5094228;28;20027;-74
2022/06/02 02:24:01;;;;;;;14.07;12.82;;;9.60;99.90;;;;;;5093264;28;20077;-73
2022/06/02 02:26:32;;;;;;;13.73;12.38;;;9.50;99.90;;;;;;5094657;28;20036;-74
2022/06/02 02:29:12;;;;;;;13.65;12.40;;;9.50;99.90;;;;;;5093967;28;20471;-73
2022/06/02 02:31:49;;;;;;;13.30;12.15;;;9.50;99.90;;;;;;5084036;28;20040;-73
2022/06/02 02:34:36;;;;;;;13.90;12.60;;;9.50;99.90;;;;;;5088234;28;20055;-73
2022/06/02 02:37:14;;;;;;;14.05;12.60;;;9.50;99.90;;;;;;5086132;28;20085;-74
2022/06/02 02:39:57;;;;;;;13.02;11.90;;;9.50;99.90;;;;;;5093770;28;20070;-74
2022/06/02 02:42:31;;;;;;;12.20;11.18;;;9.50;99.90;;;;;;5093957;28;20549;-73
2022/06/02 02:45:25;;;;;;;14.13;12.50;;;9.80;99.90;;;;;;5093002;28;20119;-74
2022/06/02 02:48:12;;;;;;;13.43;12.10;;;9.40;99.90;;;;;;5093576;28;20017;-73
2022/06/02 02:50:53;;;;;;;14.30;12.90;;;9.40;99.90;;;;;;5093829;28;20510;-73
2022/06/02 02:53:31;;;;;;;13.73;12.43;;;9.40;99.90;;;;;;5093045;28;20016;-72
2022/06/02 02:56:02;;;;;;;14.15;12.88;;;9.40;99.90;;;;;;5092542;28;20028;-74
2022/06/02 02:59:02;;;;;;;12.65;11.45;;;9.40;99.90;;;;;;5092865;28;20040;-72
2022/06/02 03:01:35;;;;;;;13.43;12.15;;;9.30;99.90;;;;;;5093508;28;20484;-74
2022/06/02 03:04:18;;;;;;;13.68;12.35;;;9.30;99.90;;;;;;5093348;28;20467;-73
2022/06/02 03:06:44;;;;;;;13.18;11.98;;;9.30;99.90;;;;;;5092935;28;20016;-72
2022/06/02 03:09:20;;;;;;;12.68;11.38;;;9.30;99.90;;;;;;5093111;28;20080;-72
2022/06/02 03:11:54;;;;;;;11.55;10.45;;;9.30;99.90;;;;;;5093263;28;20027;-72
2022/06/02 03:14:42;;;;;;;12.80;11.52;;;9.30;99.90;;;;;;5092725;28;20024;-73
2022/06/02 03:17:52;;;;;;;12.82;11.45;;;9.30;99.90;;;;;;5092941;28;20380;-73
2022/06/02 03:20:43;;;;;;;13.07;11.68;;;9.30;99.90;;;;;;5089047;28;20032;-74
2022/06/02 03:23:33;;;;;;;13.77;12.38;;;9.20;99.90;;;;;;5089830;28;20123;-74
2022/06/02 03:26:08;;;;;;;13.88;12.50;;;9.20;99.90;;;;;;5080604;28;20375;-73
2022/06/02 03:29:07;;;;;;;15.27;13.68;;;9.20;99.90;;;;;;5092095;28;20104;-73
2022/06/02 03:31:58;;;;;;;14.07;12.57;;;9.20;99.90;;;;;;5093204;28;20040;-73
2022/06/02 03:34:39;;;;;;;14.13;12.77;;;9.20;99.90;;;;;;5079442;28;20470;-73
2022/06/02 03:37:24;;;;;;;15.80;13.93;;;9.20;99.90;;;;;;5092550;28;20042;-75
2022/06/02 03:40:01;;;;;;;14.32;12.88;;;9.20;99.90;;;;;;5093111;28;20035;-73
2022/06/02 03:42:31;;;;;;;15.10;13.55;;;9.20;99.90;;;;;;5092235;28;20048;-73
2022/06/02 03:45:35;;;;;;;;;;;9.20;99.90;;;;;;5092826;28;20066;-72
2022/06/02 03:48:51;;;;;;;14.73;13.10;;;9.20;99.90;;;;;;4990011;28;20009;-72
2022/06/02 03:52:07;;;;;;;15.35;13.68;;;9.10;99.90;;;;;;4952900;28;20050;-73
2022/06/02 03:54:51;;;;;;;17.25;14.82;;;9.20;99.90;;;;;;5058105;28;20040;-72
2022/06/02 03:57:34;;;;;;;15.35;13.75;;;9.20;99.90;;;;;;5092597;28;20028;-72
2022/06/02 04:00:08;;;;;;;15.52;13.93;;;9.20;99.90;;;;;;5092039;28;20522;-73
2022/06/02 04:02:34;;;;;;;15.27;13.80;;;9.20;99.90;;;;;;5092140;28;20039;-72
2022/06/02 04:05:11;;;;;;;18.10;13.43;;;9.20;99.90;;;;;;5091973;28;20012;-73
2022/06/02 04:08:02;;;;;;;14.90;13.15;;;9.30;99.90;;;;;;5092150;28;20065;-72
2022/06/02 04:10:33;;;;;;;;;;;9.30;99.90;;;;;;5092113;28;20035;-73
2022/06/02 04:16:10;;;;;;;10.23;9.32;;;9.30;99.90;;;;;;5080203;28;20434;-73
2022/06/02 04:18:54;;;;;;;10.00;9.18;;;9.30;99.90;;;;;;5092099;28;20016;-73
2022/06/02 04:21:52;;;;;;;8.48;7.78;;;9.40;99.90;;;;;;5092358;28;20024;-73
2022/06/02 04:24:36;;;;;;;11.38;9.98;;;9.30;99.90;;;;;;5071341;28;20388;-73
2022/06/02 04:27:11;;;;;;;13.63;12.38;;;9.40;99.90;;;;;;5088314;28;20032;-73
2022/06/02 04:29:55;;;;;;;14.48;13.07;;;9.40;99.90;;;;;;5092296;28;20111;-73
2022/06/02 04:32:39;;;;;;;14.77;12.88;;;9.40;99.90;;;;;;5091905;28;20468;-73
2022/06/02 04:35:36;;;;;;;13.95;12.63;;;9.50;99.90;;;;;;5091760;28;20031;-72
2022/06/02 04:38:15;;;;;;;14.15;12.85;;;9.50;99.90;;;;;;5080220;28;20112;-74
2022/06/02 04:40:55;;;;;;;13.43;12.18;;;9.50;99.90;;;;;;5092001;28;20016;-74
2022/06/02 04:43:38;;;;;;;14.13;12.73;;;9.60;99.90;;;;;;5092081;28;20111;-74
2022/06/02 04:46:17;;;;;;;14.68;12.88;;;9.60;99.90;;;;;;5090648;28;20025;-74
2022/06/02 04:48:49;;;;;;;15.32;13.75;;;9.60;99.90;;;;;;5091871;28;20488;-73
2022/06/02 04:51:36;;;;;;;15.52;13.95;;;9.70;99.90;;;;;;5091043;28;20446;-74
2022/06/02 04:54:19;;;;;;;15.93;14.32;;;9.80;99.90;;;;;;5091554;28;20028;-74
2022/06/02 04:57:05;;;;;;;17.52;15.82;;;9.80;99.90;;;;;;5091905;28;20020;-73
2022/06/02 05:00:07;;;;;;;16.55;13.70;;;10.00;99.90;;;;;;5090967;28;20048;-73
2022/06/02 05:03:05;;;;;;;16.17;14.48;;;10.10;99.90;;;;;;5059319;28;20043;-74
2022/06/02 05:05:43;;;;;;;15.80;13.85;;;10.20;99.90;;;;;;5091052;28;20541;-74
2022/06/02 05:08:37;;;;;;;14.50;13.10;;;10.30;99.90;;;;;;5091060;28;20028;-74
2022/06/02 05:11:29;;;;;;;17.25;13.80;;;10.40;99.90;;;;;;5091289;28;20491;-73
2022/06/02 05:14:18;;;;;;;16.17;13.93;;;10.50;99.90;;;;;;5077263;28;20032;-73
2022/06/02 05:17:22;;;;;;;18.27;15.25;;;10.60;99.90;;;;;;5091310;28;20021;-74
2022/06/02 05:20:24;;;;;;;15.27;13.10;;;10.70;99.90;;;;;;5068382;28;20032;-73
2022/06/02 05:23:25;;;;;;;14.93;13.40;;;10.80;99.90;;;;;;5095386;28;20023;-74
2022/06/02 05:26:01;;;;;;;18.95;15.73;;;10.90;99.90;;;;;;5032899;28;20108;-74
2022/06/02 05:28:26;;;;;;;18.88;14.93;;;11.00;99.90;;;;;;5085988;28;20056;-74
2022/06/02 05:31:07;;;;;;;15.93;14.23;;;11.00;99.90;;;;;;5095315;28;20090;-73
2022/06/02 05:33:44;;;;;;;15.75;14.05;;;11.10;99.90;;;;;;5095204;28;20032;-73
2022/06/02 05:36:18;;;;;;;14.68;13.20;;;11.20;99.90;;;;;;5095248;28;20023;-74
2022/06/02 05:39:02;;;;;;;14.70;13.30;;;11.30;99.90;;;;;;5093614;28;20028;-73
2022/06/02 05:41:50;;;;;;;18.13;14.35;;;11.40;99.90;;;;;;5089804;28;20020;-73
2022/06/02 05:45:04;;;;;;;15.73;11.80;;;11.40;99.90;;;;;;5041969;28;20518;-72
2022/06/02 05:47:38;;;;;;;14.32;12.85;;;11.60;99.90;;;;;;5070525;28;20097;-73
2022/06/02 05:50:21;;;;;;;12.90;11.13;;;11.60;99.90;;;;;;5092117;28;20115;-75
2022/06/02 05:53:05;;;;;;;12.60;11.00;;;11.70;99.90;;;;;;5093379;28;20032;-73
2022/06/02 05:56:04;;;;;;;12.73;11.57;;;11.70;99.90;;;;;;5091408;28;20095;-74
2022/06/02 05:58:40;;;;;;;11.52;10.45;;;11.80;99.90;;;;;;5092857;28;20071;-73
2022/06/02 06:01:08;;;;;;;12.85;10.45;;;11.80;99.90;;;;;;5092539;28;20024;-73
2022/06/02 06:04:01;;;;;;;12.02;11.02;;;11.90;99.90;;;;;;5091750;28;20109;-73
2022/06/02 06:07:05;;;;;;;14.82;12.02;;;11.90;99.90;;;;;;5091473;28;20024;-74
2022/06/02 06:09:36;;;;;;;11.43;10.32;;;11.90;99.90;;;;;;5053773;28;20029;-73
2022/06/02 06:12:02;;;;;;;11.18;10.05;;;12.20;99.90;;;;;;5093206;28;20384;-73
2022/06/02 06:14:48;;;;;;;12.80;11.48;;;12.30;99.90;;;;;;5093355;28;20020;-73
2022/06/02 06:17:23;;;;;;;11.48;10.57;;;12.30;99.90;;;;;;5091983;28;20386;-73
2022/06/02 06:20:06;;;;;;;11.80;9.93;;;12.40;99.90;;;;;;5092168;28;20028;-74
2022/06/02 06:22:54;;;;;;;10.65;9.65;;;12.50;99.90;;;;;;5092200;28;20036;-74
2022/06/02 06:25:44;;;;;;;11.45;10.45;;;12.50;99.90;;;;;;5093085;28;20384;-74
2022/06/02 06:28:15;;;;;;;11.88;10.98;;;12.60;99.90;;;;;;5091054;28;20016;-75
2022/06/02 06:30:44;;;;;;;11.88;10.88;;;12.80;99.90;;;;;;5092251;28;20032;-73
2022/06/02 06:33:28;;;;;;;11.27;10.30;;;12.90;99.90;;;;;;5092831;28;20055;-74
2022/06/02 06:36:03;;;;;;;12.40;11.20;;;13.00;99.90;;;;;;5092597;28;20120;-74
2022/06/02 06:38:38;;;;;;;13.38;11.10;;;13.10;99.90;;;;;;5092310;28;20039;-73
2022/06/02 06:41:25;;;;;;;13.65;11.70;;;13.00;99.90;;;;;;5092425;28;20030;-73
2022/06/02 06:44:04;;;;;;;12.90;11.63;;;13.10;99.90;;;;;;5091790;28;20073;-74
2022/06/02 06:47:03;;;;;;;12.52;9.93;;;13.30;99.90;;;;;;5091007;28;20047;-74
2022/06/02 06:49:51;;;;;;;10.77;9.55;;;13.40;99.90;;;;;;5057905;28;20024;-73
2022/06/02 06:52:32;;;;;;;10.48;9.57;;;13.40;99.90;;;;;;5089286;28;20036;-74
2022/06/02 06:55:23;;;;;;;11.68;10.43;;;13.60;99.90;;;;;;5091160;28;20024;-73
2022/06/02 06:58:19;;;;;;;10.73;9.73;;;13.90;99.90;;;;;;5089543;28;20535;-74
2022/06/02 07:01:06;;;;;;;11.55;10.52;;;14.20;99.90;;;;;;5090937;28;20395;-73
2022/06/02 07:04:01;;;;;;;13.27;12.00;;;14.40;99.90;;;;;;5091683;28;20048;-72
2022/06/02 07:06:45;;;;;;;11.88;10.73;;;14.50;99.90;;;;;;5079618;28;20503;-72
2022/06/02 07:09:29;;;;;;;11.07;10.02;;;14.40;99.90;;;;;;5090577;28;20021;-72
2022/06/02 07:15:10;;;;;;;13.23;11.85;;;14.50;99.90;;;;;;5089916;28;20031;-72
2022/06/02 07:18:05;;;;;;;12.82;11.50;;;14.30;99.90;;;;;;5092486;28;20103;-72
2022/06/02 07:21:03;;;;;;;15.57;14.23;;;14.10;99.90;;;;;;5090331;28;20024;-72
2022/06/02 07:23:49;;;;;;;13.80;12.43;;;14.00;99.90;;;;;;5090689;28;20024;-73
2022/06/02 07:26:46;;;;;;;13.65;12.18;;;13.90;99.90;;;;;;5092891;28;20028;-71
2022/06/02 07:29:25;;;;;;;12.10;11.02;;;13.90;99.90;;;;;;5080330;28;20020;-72
2022/06/02 07:32:15;;;;;;;13.63;12.43;;;13.80;99.90;;;;;;5092225;28;20071;-72
2022/06/02 07:34:46;;;;;;;12.65;11.05;;;13.80;99.90;;;;;;5081807;28;20020;-73
2022/06/02 07:37:39;;;;;;;10.95;9.95;;;13.80;99.90;;;;;;5092814;28;20035;-71
2022/06/02 07:40:20;;;;;;;12.05;10.95;;;14.00;99.90;;;;;;5091982;28;20035;-72
2022/06/02 07:43:00;;;;;;;;;;;14.10;99.90;;;;;;5093018;28;20027;-73
2022/06/02 07:45:45;;;;;;;11.00;9.98;;;14.30;99.90;;;;;;5092627;28;19955;-73
2022/06/02 07:48:40;;;;;;;10.35;9.55;;;14.50;99.90;;;;;;5091829;28;20039;-73
2022/06/02 07:51:36;;;;;;;10.73;9.70;;;14.70;99.90;;;;;;5092117;28;20032;-73
2022/06/02 07:54:16;;;;;;;11.32;10.30;;;14.80;99.90;;;;;;5091756;28;20032;-72
2022/06/02 07:57:07;;;;;;;10.95;10.00;;;14.80;99.90;;;;;;5092553;28;20035;-74
2022/06/02 08:00:07;;;;;;;10.35;9.32;;;14.80;99.90;;;;;;5094929;28;20056;-73
2022/06/02 08:02:47;;;;;;;9.97;9.03;;;14.80;99.90;;;;;;5092123;28;20030;-73
2022/06/02 08:05:27;;;;;;;;;;;14.70;99.90;;;;;;5092980;28;20349;-73
2022/06/02 08:07:56;;;;;;;10.02;9.20;;;14.70;99.90;;;;;;5091469;28;19904;-73
2022/06/02 08:10:50;;;;;;;10.02;9.00;;;14.60;99.90;;;;;;5092400;28;20039;-73
2022/06/02 08:13:32;;;;;;;10.23;9.43;;;14.50;99.90;;;;;;5092484;28;20024;-73
2022/06/02 08:16:04;;;;;;;8.43;7.82;;;14.40;99.90;;;;;;5091466;28;20016;-73
2022/06/02 08:19:07;;;;;;;7.53;6.82;;;14.40;99.90;;;;;;5092402;28;20086;-74
2022/06/02 08:21:44;;;;;;;9.10;8.20;;;14.30;99.90;;;;;;5092390;28;20361;-75
2022/06/02 08:24:28;;;;;;;7.60;6.93;;;14.30;99.90;;;;;;5078287;28;20020;-73
2022/06/02 08:27:18;;;;;;;6.80;6.30;;;14.20;99.90;;;;;;5091962;28;20498;-74
2022/06/02 08:30:14;;;;;;;7.95;7.25;;;14.30;99.90;;;;;;5091519;28;20069;-72
2022/06/02 08:33:03;;;;;;;9.35;8.63;;;14.40;99.90;;;;;;5078848;28;20032;-73
2022/06/02 08:35:48;;;;;;;7.75;7.13;;;14.50;99.90;;;;;;5078420;28;20029;-75
2022/06/02 08:38:20;;;;;;;10.02;8.27;;;14.50;99.90;;;;;;5091748;28;20027;-74
2022/06/02 08:41:30;;;;;;;7.13;6.53;;;14.60;99.90;;;;;;5092154;28;20095;-73
2022/06/02 08:44:07;;;;;;;7.93;7.20;;;14.50;99.90;;;;;;5046237;28;20044;-73
2022/06/02 08:46:43;;;;;;;7.97;7.28;;;14.40;99.90;;;;;;5092049;28;20043;-72
2022/06/02 08:49:35;;;;;;;7.38;6.68;;;14.40;99.90;;;;;;5091710;28;20063;-75
2022/06/02 08:52:12;;;;;;;6.75;6.15;;;14.40;99.90;;;;;;5090881;28;20429;-74
2022/06/02 08:55:11;;;;;;;5.88;5.43;;;14.40;99.90;;;;;;5093507;28;20035;-73
2022/06/02 08:57:42;;;;;;;7.03;6.38;;;14.50;99.90;;;;;;5095540;28;20032;-73
2022/06/02 09:00:20;;;;;;;8.10;7.40;;;14.60;99.90;;;;;;5093688;28;20121;-73
2022/06/02 09:03:04;;;;;;;6.75;6.13;;;14.80;99.90;;;;;;5095267;28;20095;-73
2022/06/02 09:05:35;;;;;;;7.82;7.05;;;14.90;99.90;;;;;;5087385;28;20032;-72
2022/06/02 09:08:39;;;;;;;8.10;7.30;;;15.10;99.90;;;;;;5095254;28;20024;-73
2022/06/02 09:11:19;;;;;;;8.23;6.32;;;15.30;99.90;;;;;;5077141;28;20089;-73
2022/06/02 09:14:13;;;;;;;5.85;5.30;;;15.40;99.90;;;;;;5095856;28;20371;-73
2022/06/02 09:16:39;;;;;;;6.10;5.70;;;15.60;99.90;;;;;;5095889;28;20102;-73
2022/06/02 09:19:38;;;;;;;8.25;6.13;;;15.80;99.90;;;;;;5094603;28;20061;-73
2022/06/02 09:22:29;;;;;;;5.75;5.32;;;15.90;99.90;;;;;;5092966;28;20024;-73
2022/06/02 09:25:09;;;;;;;5.65;5.20;;;16.00;99.90;;;;;;5093871;28;20031;-73
2022/06/02 09:28:12;;;;;;;6.10;5.57;;;16.00;99.90;;;;;;5092029;28;20073;-72
2022/06/02 09:30:56;;;;;;;6.25;5.75;;;16.10;99.90;;;;;;5093037;28;20024;-73
2022/06/02 09:33:43;;;;;;;6.93;6.32;;;16.20;99.90;;;;;;5092960;28;20024;-72
2022/06/02 09:36:27;;;;;;;6.63;6.13;;;16.30;99.90;;;;;;5094134;28;20043;-73
2022/06/02 09:39:13;;;;;;;5.25;4.80;;;16.30;99.90;;;;;;5091652;28;20086;-73
2022/06/02 09:42:16;;;;;;;6.40;5.80;;;16.50;99.90;;;;;;5093928;28;20023;-73
2022/06/02 09:45:09;;;;;;;7.05;5.95;;;16.60;99.90;;;;;;5093242;28;20020;-73
2022/06/02 09:47:53;;;;;;;7.45;5.28;;;16.90;99.90;;;;;;5094366;28;20070;-73
2022/06/02 09:50:28;;;;;;;4.72;4.43;;;17.10;99.90;;;;;;5093395;28;20105;-72
2022/06/02 09:53:02;;;;;;;4.72;4.32;;;17.20;99.90;;;;;;5092355;28;20038;-72
2022/06/02 09:56:00;;;;;;;5.72;5.05;;;17.40;99.90;;;;;;5094005;28;20044;-72
2022/06/02 09:58:53;;;;;;;4.43;4.05;;;17.50;99.90;;;;;;5088581;28;20039;-73
2022/06/02 10:01:34;;;;;;;5.28;4.85;;;17.30;99.90;;;;;;5091212;28;20032;-72
2022/06/02 10:04:24;;;;;;;9.68;5.25;;;17.20;99.90;;;;;;5087978;28;20028;-72
2022/06/02 10:07:04;;;;;;;5.25;4.78;;;17.00;99.80;;;;;;5092513;28;20096;-72
2022/06/02 10:09:57;;;;;;;4.97;4.57;;;16.80;99.90;;;;;;5093919;28;20031;-72
2022/06/02 10:12:55;;;;;;;4.82;4.38;;;16.80;99.90;;;;;;5086906;28;20453;-73
2022/06/02 10:15:30;;;;;;;4.13;3.83;;;16.80;99.90;;;;;;5092374;28;20107;-73
2022/06/02 10:18:34;;;;;;;5.97;4.20;;;17.00;99.90;;;;;;5093837;28;20020;-72
2022/06/02 10:21:17;;;;;;;6.20;5.60;;;17.20;99.90;;;;;;5064117;28;20039;-73
2022/06/02 10:23:52;;;;;;;5.90;5.38;;;17.40;99.10;;;;;;5091240;28;20035;-73
2022/06/02 10:26:25;;;;;;;5.38;4.97;;;17.40;99.20;;;;;;5094202;28;20452;-73
2022/06/02 10:28:59;;;;;;;6.82;5.60;;;17.40;99.50;;;;;;5093382;28;20024;-73
2022/06/02 10:32:09;;;;;;;5.00;4.57;;;17.50;99.30;;;;;;5094769;28;20046;-73
2022/06/02 10:34:56;;;;;;;5.67;4.97;;;17.50;98.90;;;;;;5094236;28;20051;-73
2022/06/02 10:37:57;;;;;;;6.88;5.30;;;17.60;99.30;;;;;;5091424;28;20020;-73
2022/06/02 10:40:44;;;;;;;5.82;5.30;;;17.60;98.70;;;;;;5094094;28;20018;-73
2022/06/02 10:43:34;;;;;;;5.53;5.13;;;17.70;99.00;;;;;;5093113;28;20115;-73
2022/06/02 10:46:39;;;;;;;6.50;6.00;;;17.90;98.80;;;;;;5092342;28;20025;-73
2022/06/02 10:49:26;;;;;;;6.57;6.07;;;17.90;98.00;;;;;;5064542;28;20115;-72
2022/06/02 10:52:16;;;;;;;6.40;5.88;;;18.10;97.50;;;;;;5083075;28;20032;-69
2022/06/02 10:55:30;;;;;;;7.47;6.88;;;18.10;97.60;;;;;;5079933;28;20020;-73
2022/06/02 10:58:23;;;;;;;7.78;6.97;;;18.20;97.60;;;;;;5070039;28;20059;-73
2022/06/02 11:01:07;;;;;;;6.00;5.32;;;18.20;97.60;;;;;;5093129;28;20157;-70
2022/06/02 11:04:13;;;;;;;5.38;4.95;;;18.30;97.70;;;;;;5093354;28;20476;-73
2022/06/02 11:07:26;;;;;;;5.00;4.60;;;18.40;97.40;;;;;;5093381;28;20047;-73
2022/06/02 11:10:20;;;;;;;7.13;6.40;;;18.60;97.80;;;;;;5093397;28;20028;-73
2022/06/02 11:13:21;;;;;;;7.10;6.40;;;18.80;96.70;;;;;;5092767;28;20032;-72
2022/06/02 11:16:11;;;;;;;6.32;5.90;;;18.80;96.60;;;;;;5003867;28;20038;-72
2022/06/02 11:18:50;;;;;;;6.43;5.78;;;18.80;96.80;;;;;;5077444;28;20375;-72
2022/06/02 11:22:05;;;;;;;8.23;7.10;;;18.90;96.20;;;;;;5093383;28;20130;-73
2022/06/02 11:24:46;;;;;;;8.82;7.97;;;18.90;96.20;;;;;;5066804;28;20057;-73
2022/06/02 11:27:27;;;;;;;6.22;5.70;;;19.00;95.50;;;;;;5091765;28;20491;-71
2022/06/02 11:29:58;;;;;;;;;;;18.90;95.30;;;;;;5088317;28;20488;-72
2022/06/02 11:32:49;;;;;;;8.02;7.35;;;18.80;94.70;;;;;;5090985;28;19916;-72
2022/06/02 11:35:28;;;;;;;5.72;5.22;;;18.90;96.40;;;;;;5090336;28;20384;-73
2022/06/02 11:38:19;;;;;;;5.87;5.47;;;19.10;96.50;;;;;;5091591;28;20052;-73
2022/06/02 11:41:03;;;;;;;;;;;19.30;95.30;;;;;;5092735;28;20020;-73
2022/06/02 11:43:54;;;;;;;5.82;5.15;;;19.40;93.90;;;;;;5092871;28;19904;-73
2022/06/02 11:46:29;;;;;;;4.05;3.63;;;19.50;93.30;;;;;;5089647;28;20012;-73
2022/06/02 11:49:42;;;;;;;5.30;4.80;;;19.60;93.50;;;;;;5092627;28;20051;-73
2022/06/02 11:52:19;;;;;;;6.07;5.40;;;19.80;93.70;;;;;;4990842;28;20121;-72
2022/06/02 11:55:15;;;;;;;4.63;4.22;;;19.90;93.60;;;;;;5087094;28;20032;-72
2022/06/02 11:57:53;;;;;;;3.30;3.10;;;19.90;93.00;;;;;;5093037;28;20028;-72
2022/06/02 12:00:44;;;;;;;3.15;2.85;;;20.10;93.50;;;;;;5032461;28;20045;-72
2022/06/02 12:03:48;;;;;;;3.33;3.03;;;20.30;92.40;;;;;;5032023;28;20374;-72
2022/06/02 12:06:28;;;;;;;3.17;2.75;;;20.30;91.80;;;;;;5032639;28;20083;-72
2022/06/02 12:09:06;;;;;;;;;;;20.30;90.10;;;;;;5031949;28;20027;-72
2022/06/02 12:11:50;;;;;;;3.35;3.13;;;20.30;90.20;;;;;;5036462;28;19995;-72
2022/06/02 12:14:34;;;;;;;4.88;4.13;;;20.40;91.30;;;;;;5050574;28;20033;-72
2022/06/02 12:17:14;;;;;;;4.00;3.60;;;20.70;91.30;;;;;;5051627;28;20179;-72
2022/06/02 12:19:54;;;;;;;4.50;4.10;;;20.70;90.40;;;;;;5052083;28;20089;-72
2022/06/02 12:22:38;;;;;;;4.15;3.75;;;20.90;90.80;;;;;;5049617;28;20032;-72
2022/06/02 12:25:37;;;;;;;6.57;4.95;;;21.00;91.30;;;;;;5051781;28;20021;-72
2022/06/02 12:28:11;;;;;;;4.35;4.00;;;21.30;90.70;;;;;;5042280;28;20016;-73
2022/06/02 12:30:57;;;;;;;4.38;4.07;;;21.40;89.20;;;;;;5051627;28;20480;-72
2022/06/02 12:33:43;;;;;;;3.72;3.42;;;21.50;89.80;;;;;;5052006;28;20102;-73
2022/06/02 12:36:28;;;;;;;3.55;3.22;;;21.50;88.50;;;;;;5039935;28;20041;-73
2022/06/02 12:39:12;;;;;;;3.50;3.20;;;21.60;87.90;;;;;;5051399;28;20025;-73
2022/06/02 12:42:07;;;;;;;4.63;3.80;;;21.60;87.40;;;;;;5051979;28;20025;-74
2022/06/02 12:44:57;;;;;;;3.65;3.35;;;21.70;87.50;;;;;;5050756;28;20032;-73
2022/06/02 12:47:28;;;;;;;;;;;21.70;87.80;;;;;;5040334;28;20026;-73
2022/06/02 12:50:19;;;;;;;6.63;6.03;;;21.70;87.10;;;;;;5031101;28;19905;-73
2022/06/02 12:52:55;;;;;;;;;;;21.40;85.00;;;;;;5032195;28;20056;-74
2022/06/02 12:55:50;;;;;;;6.15;5.75;;;21.20;85.80;;;;;;5031904;28;20116;-74
2022/06/02 12:58:51;;;;;;;4.97;3.97;;;21.00;86.60;;;;;;5037929;28;20033;-73
2022/06/02 13:01:16;;;;;;;3.92;3.63;;;21.00;86.30;;;;;;5086417;28;20495;-72
2022/06/02 13:04:13;;;;;;;8.18;4.63;;;21.30;85.70;;;;;;5091120;28;20020;-73
2022/06/02 13:06:50;;;;;;;4.85;4.45;;;21.50;85.50;;;;;;5091983;28;20051;-72
2022/06/02 13:09:21;;;;;;;5.80;5.30;;;21.60;85.50;;;;;;5091901;28;20063;-73
2022/06/02 13:12:02;;;;;;;4.78;4.15;;;21.60;86.00;;;;;;5090888;28;20078;-72
2022/06/02 13:15:01;;;;;;;5.10;4.68;;;21.70;86.10;;;;;;5092067;28;20060;-72
2022/06/02 13:17:41;;;;;;;6.32;5.82;;;21.90;85.80;;;;;;5078866;28;20017;-73
2022/06/02 13:20:11;;;;;;;5.38;4.95;;;22.00;83.20;;;;;;5091163;28;20177;-73
2022/06/02 13:23:10;;;;;;;4.30;4.00;;;22.20;84.10;;;;;;5092539;28;20170;-73
2022/06/02 13:25:49;;;;;;;4.82;3.80;;;22.50;83.70;;;;;;5091086;28;20111;-73
2022/06/02 13:28:31;;;;;;;5.17;3.37;;;22.90;84.10;;;;;;5091692;28;20039;-73
2022/06/02 13:31:41;;;;;;;5.35;4.78;;;23.20;83.50;;;;;;5082236;28;20325;-72
2022/06/02 13:34:25;;;;;;;;;;;23.50;81.10;;;;;;5091403;28;20129;-71
2022/06/02 13:37:10;;;;;;;6.45;5.70;;;23.50;79.40;;;;;;5091146;28;20391;-71
2022/06/02 13:40:02;;;;;;;6.80;4.47;;;23.20;81.10;;;;;;5091126;28;20020;-71
2022/06/02 13:43:21;;;;;;;6.55;5.97;;;23.10;82.20;;;;;;5095067;28;20048;-74
2022/06/02 13:46:30;;;;;;;7.68;5.70;;;22.80;80.50;;;;;;5012351;28;20077;-73
2022/06/02 13:49:17;;;;;;;7.03;6.35;;;22.70;82.30;;;;;;5085689;28;20039;-74
2022/06/02 13:52:01;;;;;;;5.95;4.88;;;22.60;80.50;;;;;;5095039;28;20024;-72
2022/06/02 13:58:07;;;;;;;6.70;5.57;;;22.50;80.10;;;;;;5095001;28;20038;-72
2022/06/02 14:00:54;;;;;;;6.88;6.00;;;22.50;82.10;;;;;;5094551;28;20089;-73
2022/06/02 14:03:48;;;;;;;5.78;5.20;;;22.40;80.50;;;;;;5095491;28;20024;-73
2022/06/02 14:06:19;;;;;;;5.93;5.10;;;22.40;81.30;;;;;;5096124;28;20028;-74
2022/06/02 14:08:56;;;;;;;6.78;4.93;;;22.20;82.30;;;;;;5095086;28;20027;-73
2022/06/02 14:11:48;;;;;;;5.50;5.00;;;22.00;80.10;;;;;;5082149;28;20044;-72
2022/06/02 14:14:50;;;;;;;5.65;5.10;;;22.00;80.10;;;;;;5094037;28;20032;-73
2022/06/02 14:17:34;;;;;;;5.97;5.53;;;22.20;78.70;;;;;;5094764;28;20040;-73
2022/06/02 14:20:09;;;;;;;4.63;4.22;;;22.30;80.20;;;;;;5093997;28;20494;-72
2022/06/02 14:22:35;;;;;;;5.53;5.13;;;22.50;80.40;;;;;;5093801;28;20023;-73
2022/06/02 14:25:31;;;;;;;6.35;5.53;;;22.70;80.20;;;;;;5094041;28;20380;-74
2022/06/02 14:28:00;;;;;;;5.80;5.30;;;22.90;79.20;;;;;;5085620;28;20153;-74
2022/06/02 14:30:34;;;;;;;4.97;4.68;;;22.70;79.60;;;;;;5094034;28;20028;-74